Terminal Aerodrome Forecast
Issued by NWS

Home | Current Version | Previous Version | Text Only | Print | Product List | Glossary On
Versions: 1 2 3 4 5 6 7 8 9 10 11 12 13 14 15 16
095
FTUS43 KIND 271125
TAFBMG
TAF
KBMG 271125Z 2712/2812 VRB03KT P6SM BKN120
     FM271600 12006KT P6SM VCSH BKN100
     FM271800 13008KT P6SM -SHRA VCTS BKN060CB
     FM272100 14008KT 6SM -SHRA VCTS BKN040CB
     FM280000 15005KT P6SM SHRA VCTS OVC060CB
     FM280500 VRB03KT P6SM BKN020
     FM280900 VRB03KT P6SM BKN003
      AMD LTD TO CLD VIS AND WIND TIL 271300=

USA.gov is the U.S. government's official web portal to all federal, state and local government web resources and services.